Airport View

Enter AWOS ICAO identifier for current METAR.

ex. KFNL

KSNC 262135Z AUTO 13008KT 10SM OVC024 09/05 A2991 RMK AO2

26 Feb 2020 21:39

Frequency: 118.325

Phone: 860-526-1551

Other Area AWOS: KMMK - KHVN - KGON - KHFD

TAF AMD KGON 261955Z 2620/2718 11010KT P6SM OVC026 FM262300 07009KT P6SM VCSH OVC015 FM270100 07010KT 5SM SHRA BR OVC009 FM270800 09020G28KT 2SM SHRA BR OVC008 FM271000 13018G26KT 2SM SHRA BR OVC008